Time;durP1;ratioP1;P1;durP2;ratioP2;P2;SDS_P1;SDS_P2;PMS_P1;PMS_P2;Temp;Humidity;BMP_temperature;BMP_pressure;BME280_temperature;BME280_humidity;BME280_pressure;Samples;Min_cycle;Max_cycle;Signal;HPM_P1;HPM_P2
2021/04/17 00:00:29;;;;;;;8.43;5.13;;;5.20;83.10;;;;;;5071177;28;20062;-82
2021/04/17 00:02:56;;;;;;;9.60;5.50;;;5.20;83.10;;;;;;5088157;28;20061;-81
2021/04/17 00:05:22;;;;;;;12.77;5.10;;;5.20;84.10;;;;;;5037699;28;20490;-81
2021/04/17 00:07:50;;;;;;;11.37;5.30;;;5.20;84.10;;;;;;5088357;28;20035;-82
2021/04/17 00:10:17;;;;;;;11.83;5.20;;;5.10;84.30;;;;;;5070996;28;20122;-81
2021/04/17 00:12:43;;;;;;;11.20;5.47;;;5.10;84.30;;;;;;5107026;28;20070;-82
2021/04/17 00:15:10;;;;;;;11.17;4.77;;;5.10;84.50;;;;;;5070850;28;20039;-82
2021/04/17 00:17:37;;;;;;;9.23;4.80;;;5.10;84.80;;;;;;5071110;28;20036;-81
2021/04/17 00:20:04;;;;;;;7.40;4.47;;;5.10;85.00;;;;;;5087208;28;20389;-82
2021/04/17 00:22:31;;;;;;;6.43;4.30;;;5.10;85.00;;;;;;5054959;28;20039;-81
2021/04/17 00:24:57;;;;;;;14.90;5.50;;;5.00;85.10;;;;;;5054393;28;20035;-81
2021/04/17 00:27:23;;;;;;;8.67;3.63;;;5.00;85.10;;;;;;5071372;28;20046;-82
2021/04/17 00:29:50;;;;;;;10.07;5.30;;;5.00;85.30;;;;;;5088381;28;20038;-82
2021/04/17 00:32:16;;;;;;;12.37;4.30;;;5.00;85.60;;;;;;5054557;28;20039;-82
2021/04/17 00:34:43;;;;;;;8.00;3.40;;;5.00;85.60;;;;;;5088409;28;20061;-82
2021/04/17 00:37:10;;;;;;;12.07;5.40;;;5.00;85.70;;;;;;5106318;28;20039;-81
2021/04/17 00:39:37;;;;;;;7.10;4.07;;;5.00;85.60;;;;;;5071448;28;20027;-81
2021/04/17 00:42:04;;;;;;;11.67;4.73;;;4.90;85.90;;;;;;5071154;28;20039;-82
2021/04/17 00:44:33;;;;;;;7.57;3.73;;;4.90;86.30;;;;;;5104862;28;20031;-82
2021/04/17 00:47:00;;;;;;;9.37;4.70;;;4.90;86.30;;;;;;5054778;28;20421;-82
2021/04/17 00:49:26;;;;;;;9.03;4.17;;;4.90;86.60;;;;;;5057716;28;20053;-81
2021/04/17 00:51:53;;;;;;;5.80;3.77;;;4.90;86.70;;;;;;5045666;28;20395;-81
2021/04/17 00:54:20;;;;;;;12.70;4.30;;;4.90;86.60;;;;;;5047896;28;20048;-82
2021/04/17 00:56:46;;;;;;;9.47;4.43;;;4.80;86.90;;;;;;5048873;28;20387;-82
2021/04/17 00:59:12;;;;;;;11.97;4.30;;;4.80;87.20;;;;;;5064375;28;20608;-82
2021/04/17 01:01:40;;;;;;;13.60;4.30;;;4.80;87.10;;;;;;5047409;28;20507;-81
2021/04/17 01:04:43;;;;;;;10.93;4.57;;;4.80;87.10;;;;;;5046383;28;20048;-82
2021/04/17 01:07:32;;;;;;;;;;;4.80;87.30;;;;;;4984928;28;20042;-82
2021/04/17 01:10:07;;;;;;;8.30;4.67;;;4.70;87.30;;;;;;5061662;28;19919;-82
2021/04/17 01:12:38;;;;;;;6.97;3.73;;;4.70;87.40;;;;;;5063903;28;20040;-82
2021/04/17 01:15:07;;;;;;;15.53;4.50;;;4.70;87.40;;;;;;5045620;28;20041;-81
2021/04/17 01:17:35;;;;;;;11.03;4.40;;;4.70;87.70;;;;;;5046779;28;20040;-81
2021/04/17 01:20:08;;;;;;;11.27;4.90;;;4.70;87.70;;;;;;5029254;28;20052;-80
2021/04/17 01:22:36;;;;;;;9.13;4.67;;;4.70;88.00;;;;;;5049919;28;20423;-81
2021/04/17 01:25:18;;;;;;;11.00;4.50;;;4.60;88.30;;;;;;5048690;28;20047;-82
2021/04/17 01:27:45;;;;;;;8.45;3.92;;;4.60;88.20;;;;;;5050279;28;20037;-81
2021/04/17 01:30:20;;;;;;;9.33;4.13;;;4.60;88.60;;;;;;5051016;28;20044;-82
2021/04/17 01:32:49;;;;;;;10.60;3.77;;;4.60;88.50;;;;;;5067968;28;20039;-82
2021/04/17 01:35:18;;;;;;;11.53;4.47;;;4.50;88.50;;;;;;5067905;28;20055;-81
2021/04/17 01:37:51;;;;;;;8.73;3.60;;;4.50;88.80;;;;;;5068757;28;20051;-80
2021/04/17 01:40:26;;;;;;;12.70;6.15;;;4.50;88.90;;;;;;5066907;28;20036;-83
2021/04/17 01:42:54;;;;;;;27.77;14.67;;;4.50;89.00;;;;;;5068223;28;20486;-83
2021/04/17 01:45:23;;;;;;;13.03;6.20;;;4.50;88.90;;;;;;5050918;28;20399;-82
2021/04/17 01:47:54;;;;;;;9.93;3.77;;;4.50;88.80;;;;;;5067083;28;20032;-82
2021/04/17 01:50:22;;;;;;;8.13;3.93;;;4.50;89.40;;;;;;5102016;28;20524;-82
2021/04/17 01:52:50;;;;;;;10.33;3.73;;;4.40;89.00;;;;;;5074435;28;20036;-82
2021/04/17 01:55:17;;;;;;;7.10;4.00;;;4.40;89.00;;;;;;5073452;28;20393;-83
2021/04/17 01:57:44;;;;;;;8.03;3.97;;;4.40;88.90;;;;;;5089947;28;20039;-82
2021/04/17 02:00:11;;;;;;;10.57;4.17;;;4.40;89.10;;;;;;5089436;28;20043;-82
2021/04/17 02:02:41;;;;;;;9.83;4.17;;;4.40;89.30;;;;;;5106448;28;20034;-83
2021/04/17 02:05:09;;;;;;;7.70;4.13;;;4.40;89.50;;;;;;5072639;28;20035;-83
2021/04/17 02:07:35;;;;;;;11.83;3.60;;;4.30;89.90;;;;;;5072306;28;20032;-83
2021/04/17 02:10:04;;;;;;;12.07;4.03;;;4.30;90.00;;;;;;5071333;28;20039;-83
2021/04/17 02:12:30;;;;;;;9.73;4.00;;;4.30;90.10;;;;;;5072600;28;20039;-82
2021/04/17 02:14:57;;;;;;;10.70;4.33;;;4.30;90.10;;;;;;5072699;28;20081;-83
2021/04/17 02:17:32;;;;;;;11.80;4.90;;;4.30;90.30;;;;;;5089467;28;20032;-82
2021/04/17 02:20:13;;;;;;;6.67;3.20;;;4.30;90.50;;;;;;5090784;28;20513;-82
2021/04/17 02:22:42;;;;;;;8.67;3.43;;;4.30;90.50;;;;;;5089811;28;20043;-82
2021/04/17 02:25:09;;;;;;;12.83;4.13;;;4.30;90.40;;;;;;5090179;28;20028;-82
2021/04/17 02:27:36;;;;;;;7.43;3.23;;;4.30;90.60;;;;;;5071687;28;20042;-82
2021/04/17 02:30:04;;;;;;;11.33;4.37;;;4.30;90.60;;;;;;5087595;28;20421;-82
2021/04/17 02:32:30;;;;;;;10.80;4.33;;;4.30;90.80;;;;;;5053589;28;20031;-82
2021/04/17 02:34:57;;;;;;;12.03;4.50;;;4.20;90.80;;;;;;5107820;28;20035;-83
2021/04/17 02:37:23;;;;;;;10.73;4.43;;;4.20;90.80;;;;;;5072881;28;20050;-83
2021/04/17 02:39:49;;;;;;;10.00;4.00;;;4.20;90.90;;;;;;5075705;28;20044;-83
2021/04/17 02:42:16;;;;;;;13.43;4.20;;;4.20;91.00;;;;;;5108290;28;20039;-83
2021/04/17 02:44:43;;;;;;;10.70;3.83;;;4.20;91.10;;;;;;5090093;28;20039;-83
2021/04/17 02:47:10;;;;;;;8.73;3.50;;;4.20;91.10;;;;;;5089972;28;20050;-82
2021/04/17 02:49:37;;;;;;;7.83;3.20;;;4.20;91.20;;;;;;5108493;28;20047;-82
2021/04/17 02:52:04;;;;;;;9.60;3.57;;;4.20;91.10;;;;;;5072090;28;20497;-82
2021/04/17 02:54:31;;;;;;;10.80;3.63;;;4.20;91.10;;;;;;5072855;28;20047;-83
2021/04/17 02:56:57;;;;;;;8.77;2.90;;;4.20;91.10;;;;;;5072818;28;20043;-82
2021/04/17 02:59:24;;;;;;;6.30;3.00;;;4.10;91.20;;;;;;5057010;28;20081;-82
2021/04/17 03:01:50;;;;;;;9.47;3.33;;;4.10;91.10;;;;;;5107627;28;20031;-82
2021/04/17 03:04:17;;;;;;;8.23;2.93;;;4.10;91.20;;;;;;5056188;28;20032;-83
2021/04/17 03:06:43;;;;;;;11.00;3.53;;;4.00;91.20;;;;;;5071301;28;20044;-82
2021/04/17 03:09:11;;;;;;;6.97;3.50;;;4.00;91.30;;;;;;5072549;28;20039;-83
2021/04/17 03:11:37;;;;;;;7.87;3.23;;;4.00;91.30;;;;;;5086619;28;20375;-83
2021/04/17 03:14:04;;;;;;;8.17;3.53;;;3.90;91.60;;;;;;5057614;28;20031;-82
2021/04/17 03:16:30;;;;;;;8.20;3.33;;;3.90;91.40;;;;;;5068059;28;20043;-83
2021/04/17 03:18:57;;;;;;;8.93;3.90;;;3.90;91.50;;;;;;5086940;28;20040;-82
2021/04/17 03:21:23;;;;;;;13.10;4.63;;;3.90;91.60;;;;;;5053153;28;20500;-82
2021/04/17 03:23:49;;;;;;;9.43;3.73;;;3.90;91.80;;;;;;5053416;28;20478;-82
2021/04/17 03:26:16;;;;;;;8.43;3.63;;;3.90;91.90;;;;;;5069775;28;20039;-82
2021/04/17 03:28:42;;;;;;;6.43;2.50;;;3.80;92.00;;;;;;5055174;28;20036;-82
2021/04/17 03:31:09;;;;;;;7.07;3.07;;;3.80;92.20;;;;;;5088294;28;20028;-83
2021/04/17 03:33:35;;;;;;;12.10;3.80;;;3.80;92.10;;;;;;5055183;28;20054;-82
2021/04/17 03:36:02;;;;;;;9.33;3.73;;;3.80;92.20;;;;;;5037548;28;20044;-83
2021/04/17 03:38:28;;;;;;;7.13;3.40;;;3.80;92.30;;;;;;5071620;28;20501;-82
2021/04/17 03:40:55;;;;;;;10.03;3.27;;;3.80;92.60;;;;;;5072271;28;20040;-83
2021/04/17 03:43:21;;;;;;;11.30;3.73;;;3.80;92.70;;;;;;5055996;28;20039;-83
2021/04/17 03:45:47;;;;;;;9.40;2.37;;;3.90;92.70;;;;;;5071361;28;20035;-83
2021/04/17 03:48:14;;;;;;;8.10;3.17;;;3.90;92.60;;;;;;5070700;28;20533;-82
2021/04/17 03:50:40;;;;;;;12.37;3.50;;;3.90;92.90;;;;;;5087758;28;20023;-82
2021/04/17 03:53:07;;;;;;;9.43;3.33;;;3.90;92.90;;;;;;5089000;28;20058;-82
2021/04/17 03:55:34;;;;;;;9.27;2.63;;;3.90;93.00;;;;;;5077876;28;20044;-82
2021/04/17 03:58:00;;;;;;;13.93;4.13;;;3.90;92.90;;;;;;5071564;28;20039;-82
2021/04/17 04:00:27;;;;;;;8.27;3.30;;;3.90;93.00;;;;;;5087217;28;20951;-82
2021/04/17 04:02:53;;;;;;;10.17;3.40;;;3.90;93.40;;;;;;5055835;28;20405;-82
2021/04/17 04:05:20;;;;;;;10.33;4.27;;;3.90;93.10;;;;;;5088801;28;20044;-82
2021/04/17 04:07:46;;;;;;;9.93;3.10;;;3.90;93.40;;;;;;5071085;28;20371;-82
2021/04/17 04:10:14;;;;;;;7.27;2.80;;;3.90;93.40;;;;;;5053496;28;20039;-83
2021/04/17 04:12:42;;;;;;;7.13;2.97;;;3.90;93.40;;;;;;5063199;28;20039;-79
2021/04/17 04:15:10;;;;;;;7.23;2.50;;;3.90;93.30;;;;;;5087727;28;20036;-82
2021/04/17 04:17:37;;;;;;;7.87;3.10;;;3.90;93.30;;;;;;5088305;28;20038;-82
2021/04/17 04:20:05;;;;;;;7.67;3.20;;;3.90;93.30;;;;;;5054282;28;20051;-82
2021/04/17 04:22:34;;;;;;;9.23;3.27;;;3.80;93.30;;;;;;5088630;28;20892;-82
2021/04/17 04:25:00;;;;;;;13.57;3.97;;;3.80;93.40;;;;;;5071300;28;20066;-82
2021/04/17 04:27:27;;;;;;;6.90;3.17;;;3.80;93.40;;;;;;5054594;28;20031;-82
2021/04/17 04:29:53;;;;;;;6.60;2.73;;;3.80;93.50;;;;;;5068610;28;20501;-82
2021/04/17 04:32:20;;;;;;;12.57;3.40;;;3.80;93.50;;;;;;5052958;28;20109;-82
2021/04/17 04:34:47;;;;;;;7.97;3.10;;;3.80;93.50;;;;;;5070643;28;20482;-82
2021/04/17 04:37:13;;;;;;;7.23;3.07;;;3.80;93.60;;;;;;5105633;28;20055;-82
2021/04/17 04:39:40;;;;;;;11.50;3.90;;;3.80;93.50;;;;;;5071122;28;20054;-82
2021/04/17 04:42:06;;;;;;;8.67;2.97;;;3.70;93.50;;;;;;5086528;28;20047;-82
2021/04/17 04:44:33;;;;;;;6.23;3.20;;;3.70;93.50;;;;;;5070863;28;20035;-82
2021/04/17 04:46:59;;;;;;;12.93;4.17;;;3.70;93.50;;;;;;5070511;28;20493;-82
2021/04/17 04:49:26;;;;;;;9.13;4.20;;;3.70;93.50;;;;;;5041025;28;20049;-82
2021/04/17 04:51:52;;;;;;;9.47;3.37;;;3.70;93.70;;;;;;5028855;28;20036;-82
2021/04/17 04:54:19;;;;;;;8.37;3.70;;;3.70;93.70;;;;;;5063906;28;20043;-82
2021/04/17 04:56:45;;;;;;;7.53;3.10;;;3.70;93.80;;;;;;5047415;28;20040;-82
2021/04/17 04:59:12;;;;;;;10.10;4.23;;;3.70;93.80;;;;;;5064303;28;20063;-82
2021/04/17 05:01:38;;;;;;;8.10;3.50;;;3.70;93.80;;;;;;5046398;28;20040;-82
2021/04/17 05:04:05;;;;;;;12.23;3.23;;;3.70;93.90;;;;;;5046136;28;20053;-81
2021/04/17 05:06:32;;;;;;;9.83;3.53;;;3.80;94.00;;;;;;5047303;28;20041;-81
2021/04/17 05:08:59;;;;;;;8.57;3.10;;;3.80;94.00;;;;;;5047816;28;20036;-81
2021/04/17 05:11:25;;;;;;;10.80;3.97;;;3.80;94.00;;;;;;5046602;28;20048;-81
2021/04/17 05:13:52;;;;;;;5.70;2.83;;;3.80;94.00;;;;;;5064569;28;20040;-82
2021/04/17 05:16:18;;;;;;;9.67;3.60;;;3.90;94.10;;;;;;5063636;28;20051;-81
2021/04/17 05:18:45;;;;;;;6.57;3.73;;;4.00;94.10;;;;;;5063741;28;20037;-82
2021/04/17 05:21:11;;;;;;;8.03;3.67;;;4.00;94.10;;;;;;5046385;28;20395;-83
2021/04/17 05:23:38;;;;;;;10.87;4.30;;;4.10;94.20;;;;;;5046734;28;20036;-83
2021/04/17 05:26:04;;;;;;;13.07;4.20;;;4.10;94.20;;;;;;5047611;28;20075;-85
2021/04/17 05:28:31;;;;;;;10.23;3.40;;;4.20;94.50;;;;;;5029932;28;20037;-85
2021/04/17 05:30:57;;;;;;;7.23;3.17;;;4.30;94.40;;;;;;5045483;28;20032;-85
2021/04/17 05:33:24;;;;;;;12.40;5.20;;;4.40;94.40;;;;;;5047288;28;20065;-84
2021/04/17 05:35:50;;;;;;;24.33;12.40;;;4.40;94.30;;;;;;5047365;28;20048;-84
2021/04/17 05:38:17;;;;;;;18.50;6.60;;;4.50;94.30;;;;;;5030680;28;20055;-82
2021/04/17 05:40:43;;;;;;;9.77;3.30;;;4.60;94.30;;;;;;5045212;28;20045;-82
2021/04/17 05:43:10;;;;;;;8.83;3.20;;;4.70;94.30;;;;;;5064448;28;20411;-83
2021/04/17 05:45:36;;;;;;;7.87;3.00;;;4.70;94.20;;;;;;5064045;28;20040;-83
2021/04/17 05:48:03;;;;;;;14.37;4.07;;;4.80;94.10;;;;;;5047143;28;20045;-82
2021/04/17 05:50:29;;;;;;;6.63;2.57;;;4.90;94.10;;;;;;5055337;28;20507;-82
2021/04/17 05:52:55;;;;;;;6.23;2.07;;;5.00;94.00;;;;;;5069395;28;20036;-82
2021/04/17 05:55:22;;;;;;;7.40;2.60;;;5.10;93.90;;;;;;5049272;28;20510;-83
2021/04/17 05:57:48;;;;;;;7.50;2.47;;;5.20;93.80;;;;;;5044915;28;20055;-82
2021/04/17 06:00:15;;;;;;;11.73;3.30;;;5.40;93.70;;;;;;5039189;28;20136;-83
2021/04/17 06:02:42;;;;;;;5.53;2.27;;;5.50;93.50;;;;;;5057119;28;20036;-83
2021/04/17 06:05:09;;;;;;;7.70;2.20;;;5.70;93.30;;;;;;5038633;28;20963;-83
2021/04/17 06:07:35;;;;;;;7.30;2.20;;;5.80;93.10;;;;;;5048983;28;20482;-83
2021/04/17 06:10:04;;;;;;;5.10;1.93;;;6.00;92.90;;;;;;5052822;28;20041;-83
2021/04/17 06:12:30;;;;;;;7.43;2.03;;;6.10;92.70;;;;;;5054905;28;20047;-82
2021/04/17 06:14:56;;;;;;;4.80;1.70;;;6.30;92.60;;;;;;5076696;28;20518;-83
2021/04/17 06:17:23;;;;;;;7.67;1.70;;;6.50;92.40;;;;;;5062445;28;20036;-83
2021/04/17 06:19:49;;;;;;;7.60;1.63;;;6.60;92.10;;;;;;5075488;28;20036;-83
2021/04/17 06:22:16;;;;;;;4.47;1.30;;;6.70;91.80;;;;;;5055242;28;20039;-83
2021/04/17 06:24:42;;;;;;;6.03;1.80;;;6.80;91.50;;;;;;5077661;28;20406;-82
2021/04/17 06:27:09;;;;;;;7.10;1.80;;;7.00;91.30;;;;;;5058777;28;20491;-83
2021/04/17 06:29:35;;;;;;;7.07;1.93;;;7.10;91.10;;;;;;5060154;28;20032;-83
2021/04/17 06:32:02;;;;;;;7.67;1.93;;;7.20;90.80;;;;;;5043460;28;20040;-83
2021/04/17 06:34:28;;;;;;;4.77;1.53;;;7.30;90.40;;;;;;5057762;28;20044;-83
2021/04/17 06:36:55;;;;;;;5.90;1.30;;;7.40;90.20;;;;;;5058594;28;20045;-83
2021/04/17 06:39:21;;;;;;;10.43;1.80;;;7.50;90.00;;;;;;5060079;28;20280;-83
2021/04/17 06:41:51;;;;;;;6.22;1.88;;;7.60;89.80;;;;;;5039588;28;20063;-83
2021/04/17 06:44:20;;;;;;;8.27;1.90;;;7.80;89.00;;;;;;5059868;28;20048;-82
2021/04/17 06:46:47;;;;;;;7.20;1.70;;;7.90;88.60;;;;;;5077176;28;20037;-83
2021/04/17 06:49:14;;;;;;;4.33;1.17;;;8.10;87.80;;;;;;5059424;28;20402;-81
2021/04/17 06:51:46;;;;;;;5.45;1.30;;;8.40;86.90;;;;;;5068048;28;20036;-83
2021/04/17 06:54:18;;;;;;;9.32;2.15;;;8.70;85.80;;;;;;5074261;28;20028;-84
2021/04/17 06:56:47;;;;;;;9.15;2.53;;;8.90;84.50;;;;;;5084949;28;20048;-83
2021/04/17 06:59:15;;;;;;;7.63;2.55;;;9.00;82.80;;;;;;5085521;28;20039;-84
2021/04/17 07:01:41;;;;;;;7.35;1.92;;;9.00;82.20;;;;;;5085287;28;20044;-82
2021/04/17 07:04:08;;;;;;;5.10;1.27;;;9.00;82.00;;;;;;5058607;28;20051;-81
2021/04/17 07:06:36;;;;;;;5.38;1.10;;;9.00;81.60;;;;;;5086606;28;20044;-81
2021/04/17 07:09:04;;;;;;;4.75;0.95;;;9.10;81.80;;;;;;5069541;28;20032;-81
2021/04/17 07:11:31;;;;;;;7.45;2.05;;;9.20;81.20;;;;;;5068217;28;20061;-81
2021/04/17 07:14:13;;;;;;;7.63;1.77;;;9.30;81.00;;;;;;5085941;28;20035;-81
2021/04/17 07:17:02;;;;;;;5.63;1.23;;;9.40;80.30;;;;;;5085981;28;20040;-82
2021/04/17 07:19:59;;;;;;;5.57;1.50;;;9.60;80.20;;;;;;5084191;28;20024;-81
2021/04/17 07:22:27;;;;;;;4.40;1.08;;;9.80;79.30;;;;;;5067688;28;20028;-81
2021/04/17 07:25:14;;;;;;;5.10;1.27;;;9.90;79.20;;;;;;5084132;28;20048;-81
2021/04/17 07:27:51;;;;;;;4.50;1.27;;;10.10;78.20;;;;;;5085217;28;20483;-82
2021/04/17 07:30:17;;;;;;;7.00;1.38;;;10.10;76.60;;;;;;5083012;28;20043;-81
2021/04/17 07:33:04;;;;;;;6.75;1.60;;;10.20;76.60;;;;;;5086704;28;20043;-81
2021/04/17 07:35:38;;;;;;;4.18;0.90;;;10.30;74.80;;;;;;5085945;28;20044;-82
2021/04/17 07:38:26;;;;;;;8.82;1.13;;;10.30;73.80;;;;;;5084033;28;20036;-81
2021/04/17 07:41:12;;;;;;;5.63;1.20;;;10.30;73.10;;;;;;5083956;28;20517;-81
2021/04/17 07:44:00;;;;;;;8.00;1.65;;;10.40;72.40;;;;;;5087078;28;20142;-81
2021/04/17 07:46:40;;;;;;;3.78;0.75;;;10.50;71.10;;;;;;5088081;28;20055;-81
2021/04/17 07:49:19;;;;;;;5.10;1.20;;;10.60;71.10;;;;;;5080374;28;20060;-80
2021/04/17 07:52:09;;;;;;;9.88;4.45;;;10.70;70.70;;;;;;5063350;28;20428;-80
2021/04/17 07:54:40;;;;;;;7.70;3.17;;;10.80;69.60;;;;;;5074118;28;20497;-80
2021/04/17 07:57:11;;;;;;;5.72;1.20;;;10.80;68.30;;;;;;5070868;28;20047;-82
2021/04/17 07:59:41;;;;;;;6.57;0.80;;;10.90;68.10;;;;;;5071426;28;20048;-83
2021/04/17 08:02:08;;;;;;;8.90;0.90;;;11.00;67.70;;;;;;5056003;28;20036;-82
2021/04/17 08:04:36;;;;;;;5.57;1.17;;;11.10;67.50;;;;;;5070345;28;20044;-83
2021/04/17 08:07:03;;;;;;;4.32;1.05;;;11.20;67.50;;;;;;5033266;28;20040;-83
2021/04/17 08:09:29;;;;;;;8.73;1.60;;;11.30;67.20;;;;;;5033518;28;20055;-82
2021/04/17 08:11:59;;;;;;;7.80;2.60;;;11.40;66.30;;;;;;5032604;28;20062;-80
2021/04/17 08:14:46;;;;;;;12.48;5.43;;;11.50;66.30;;;;;;5053802;28;20509;-86
2021/04/17 08:17:18;;;;;;;;;;;11.70;66.10;;;;;;5034138;28;20056;-81
2021/04/17 08:19:46;;;;;;;8.80;1.30;;;11.80;64.80;;;;;;5059707;28;19942;-83
2021/04/17 08:22:14;;;;;;;3.63;0.95;;;11.80;62.50;;;;;;5066500;28;20044;-80
2021/04/17 08:24:41;;;;;;;8.52;1.23;;;11.90;62.90;;;;;;5046848;28;20033;-80
2021/04/17 08:27:08;;;;;;;3.75;1.05;;;11.90;62.70;;;;;;5044568;28;21224;-79
2021/04/17 08:29:53;;;;;;;4.90;1.10;;;12.10;62.90;;;;;;5103551;27;20426;-83
2021/04/17 08:32:26;;;;;;;3.42;1.20;;;12.20;62.60;;;;;;5100915;28;20853;-82
2021/04/17 08:35:13;;;;;;;8.00;1.05;;;12.30;62.20;;;;;;5088003;28;20051;-82
2021/04/17 08:40:39;;;;;;;3.28;0.80;;;12.60;61.10;;;;;;5103086;28;20042;-82
2021/04/17 08:43:18;;;;;;;1.77;0.50;;;12.80;61.00;;;;;;5087692;28;20402;-81
2021/04/17 08:46:05;;;;;;;6.88;0.88;;;12.90;60.80;;;;;;5103466;28;20039;-81
2021/04/17 08:48:56;;;;;;;4.88;0.93;;;13.00;60.10;;;;;;5100659;28;20415;-81
2021/04/17 08:51:29;;;;;;;3.63;0.95;;;13.00;58.40;;;;;;5102749;28;20032;-82
2021/04/17 08:54:01;;;;;;;4.32;0.90;;;13.10;57.00;;;;;;5087770;28;20032;-82
2021/04/17 08:56:47;;;;;;;5.30;1.00;;;13.20;57.00;;;;;;5104365;27;20055;-83
2021/04/17 08:59:19;;;;;;;5.50;0.80;;;13.20;55.40;;;;;;5071129;28;20042;-81
2021/04/17 09:01:49;;;;;;;4.40;0.75;;;13.20;53.40;;;;;;5101431;28;20481;-82
2021/04/17 09:04:17;;;;;;;9.52;1.15;;;13.30;54.00;;;;;;5086677;28;20385;-82
2021/04/17 09:06:48;;;;;;;5.70;1.00;;;13.40;51.90;;;;;;5092866;27;20036;-82
2021/04/17 09:11:45;;;;;;;6.20;0.85;;;13.40;50.90;;;;;;5103832;28;20044;-82
2021/04/17 09:14:41;;;;;;;5.68;0.90;;;13.50;51.10;;;;;;5074969;28;20532;-82
2021/04/17 09:17:38;;;;;;;3.33;0.90;;;13.70;51.90;;;;;;5073437;28;20036;-82
2021/04/17 09:20:10;;;;;;;4.82;0.80;;;13.90;49.60;;;;;;5104671;28;20489;-82
2021/04/17 09:22:43;;;;;;;2.70;0.80;;;14.00;49.30;;;;;;5082365;28;20051;-82
2021/04/17 09:25:12;;;;;;;4.30;0.70;;;14.10;47.80;;;;;;5066745;28;20368;-82
2021/04/17 09:27:55;;;;;;;3.67;0.80;;;14.10;46.80;;;;;;5086819;28;20629;-81
2021/04/17 09:30:22;;;;;;;5.45;1.05;;;14.10;48.10;;;;;;5065354;28;20043;-81
2021/04/17 09:32:54;;;;;;;4.03;1.20;;;14.20;47.30;;;;;;5051864;28;20048;-82
2021/04/17 09:35:31;;;;;;;3.55;0.88;;;14.30;47.40;;;;;;5083939;28;20032;-82
2021/04/17 09:38:08;;;;;;;4.72;1.00;;;14.30;47.50;;;;;;5091822;28;20048;-81
2021/04/17 09:40:42;;;;;;;5.15;1.13;;;14.40;48.70;;;;;;5065299;28;20036;-81
2021/04/17 09:43:19;;;;;;;7.97;1.30;;;14.50;48.70;;;;;;5072805;28;20497;-82
2021/04/17 09:45:46;;;;;;;2.38;0.80;;;14.50;47.30;;;;;;5056054;28;20047;-82
2021/04/17 09:48:14;;;;;;;4.18;1.00;;;14.60;48.00;;;;;;5068410;28;20048;-82
2021/04/17 09:50:41;;;;;;;4.65;1.20;;;14.70;48.50;;;;;;5075563;28;20049;-82
2021/04/17 09:53:37;;;;;;;3.95;1.10;;;14.70;47.00;;;;;;5060228;28;20056;-82
2021/04/17 09:56:12;;;;;;;4.75;1.42;;;14.80;46.50;;;;;;5068704;28;20051;-82
2021/04/17 09:58:44;;;;;;;6.35;1.25;;;14.90;46.60;;;;;;5038970;28;20032;-85
2021/04/17 10:01:20;;;;;;;7.15;1.70;;;14.90;47.50;;;;;;5058783;28;20044;-78
2021/04/17 10:03:59;;;;;;;4.78;1.20;;;14.80;46.60;;;;;;5065062;28;20056;-81
2021/04/17 10:06:31;;;;;;;5.22;1.00;;;14.50;47.70;;;;;;5064995;28;20051;-81
2021/04/17 10:09:06;;;;;;;5.65;1.70;;;14.40;48.90;;;;;;5050236;28;20479;-79
2021/04/17 10:11:33;;;;;;;;;;;14.40;49.20;;;;;;5071315;28;20493;-86
2021/04/17 10:14:00;;;;;;;5.07;2.17;;;14.60;48.30;;;;;;5066410;28;19912;-81
2021/04/17 10:16:32;;;;;;;8.57;1.83;;;14.80;48.70;;;;;;5068784;28;20055;-81
2021/04/17 10:19:01;;;;;;;6.15;2.58;;;15.00;47.90;;;;;;5053572;28;20032;-81
2021/04/17 10:21:33;;;;;;;8.27;3.45;;;15.10;48.30;;;;;;5071494;28;20479;-80
2021/04/17 10:24:15;;;;;;;7.88;2.22;;;15.20;47.80;;;;;;5069519;28;20498;-80
2021/04/17 10:26:48;;;;;;;;;;;15.30;47.80;;;;;;5032401;28;20036;-79
2021/04/17 10:29:14;;;;;;;5.88;2.13;;;15.40;47.70;;;;;;5067235;28;19920;-78
2021/04/17 10:31:41;;;;;;;7.85;1.63;;;15.50;46.60;;;;;;5054264;28;20044;-79
2021/04/17 10:34:08;;;;;;;4.53;1.20;;;15.70;46.10;;;;;;5068227;28;20036;-78
2021/04/17 10:36:34;;;;;;;9.45;1.35;;;15.90;44.30;;;;;;5069975;28;20040;-78
2021/04/17 10:39:06;;;;;;;5.93;1.63;;;16.30;43.70;;;;;;5069995;28;20024;-81
2021/04/17 10:41:35;;;;;;;4.47;1.40;;;16.60;42.90;;;;;;5064886;28;20037;-80
2021/04/17 10:44:16;;;;;;;2.97;1.10;;;16.70;42.60;;;;;;5067764;28;20041;-81
2021/04/17 10:46:48;;;;;;;6.70;1.40;;;17.00;42.30;;;;;;5065078;28;20071;-78
2021/04/17 10:49:32;;;;;;;11.20;2.13;;;17.20;42.00;;;;;;5052401;28;20044;-79
2021/04/17 10:52:01;;;;;;;5.20;1.40;;;17.40;42.20;;;;;;5081390;28;20626;-79
2021/04/17 10:54:28;;;;;;;8.38;1.88;;;17.60;41.30;;;;;;5070863;28;20030;-80
2021/04/17 10:56:56;;;;;;;4.35;1.70;;;17.90;41.10;;;;;;5069543;28;20040;-80
2021/04/17 10:59:23;;;;;;;3.67;1.30;;;18.10;41.20;;;;;;5048969;28;20533;-80
2021/04/17 11:01:50;;;;;;;4.72;1.60;;;18.40;41.30;;;;;;5073728;28;20072;-79
2021/04/17 11:04:16;;;;;;;8.13;1.77;;;18.60;40.20;;;;;;5073118;28;20043;-79
2021/04/17 11:06:47;;;;;;;8.45;3.80;;;18.60;39.90;;;;;;5066874;28;20048;-79
2021/04/17 11:09:22;;;;;;;7.78;3.20;;;18.60;39.80;;;;;;5045000;28;20497;-79
2021/04/17 11:12:00;;;;;;;5.57;1.42;;;18.40;39.60;;;;;;5071234;28;20047;-80
2021/04/17 11:14:28;;;;;;;3.65;1.17;;;17.90;39.40;;;;;;5057127;28;20044;-79
2021/04/17 11:16:56;;;;;;;4.95;1.50;;;17.40;40.70;;;;;;5072574;28;20041;-80
2021/04/17 11:19:26;;;;;;;5.65;1.55;;;17.60;41.00;;;;;;5075483;28;20094;-79
2021/04/17 11:22:21;;;;;;;6.10;1.73;;;18.00;40.70;;;;;;5071518;28;20091;-79
2021/04/17 11:24:57;;;;;;;4.72;1.67;;;18.40;38.10;;;;;;5068110;28;20059;-79
2021/04/17 11:27:27;;;;;;;5.10;1.52;;;18.20;39.40;;;;;;5066732;28;20072;-79
2021/04/17 11:29:54;;;;;;;5.75;1.50;;;18.60;39.10;;;;;;5071947;28;20044;-81
2021/04/17 11:32:21;;;;;;;6.65;1.10;;;18.70;38.60;;;;;;5070261;28;20055;-80
2021/04/17 11:34:48;;;;;;;3.95;1.40;;;18.40;38.80;;;;;;5069808;28;20359;-80
2021/04/17 11:37:16;;;;;;;4.35;1.30;;;18.00;39.10;;;;;;5082038;28;20041;-79
2021/04/17 11:39:43;;;;;;;5.90;1.42;;;18.10;39.20;;;;;;5054062;28;20398;-79
2021/04/17 11:42:16;;;;;;;4.53;1.10;;;18.40;39.20;;;;;;5069259;28;20052;-79
2021/04/17 11:44:46;;;;;;;7.80;1.33;;;18.80;39.00;;;;;;5052547;28;20532;-79
2021/04/17 11:47:13;;;;;;;5.45;1.60;;;19.10;37.20;;;;;;5069503;28;20039;-80
2021/04/17 11:49:41;;;;;;;6.47;2.08;;;19.20;36.80;;;;;;5069323;28;20142;-80
2021/04/17 11:52:08;;;;;;;5.28;1.23;;;18.90;37.00;;;;;;5065422;28;20102;-79
2021/04/17 11:54:35;;;;;;;5.28;1.25;;;18.80;38.30;;;;;;5070314;28;20034;-79
2021/04/17 11:57:02;;;;;;;9.88;5.95;;;19.60;38.60;;;;;;5066391;28;20032;-79
2021/04/17 11:59:28;;;;;;;11.70;4.80;;;20.20;36.60;;;;;;5070969;28;20032;-80
2021/04/17 12:01:55;;;;;;;6.63;3.95;;;19.90;35.00;;;;;;5066219;28;20051;-80
2021/04/17 12:04:22;;;;;;;5.95;1.60;;;19.20;35.90;;;;;;5018256;28;20043;-80
2021/04/17 12:06:52;;;;;;;6.07;1.50;;;18.80;37.70;;;;;;5065896;28;20508;-80
2021/04/17 12:09:19;;;;;;;7.32;1.30;;;19.00;38.50;;;;;;5048446;28;20443;-79
2021/04/17 12:11:49;;;;;;;4.38;1.40;;;19.10;38.00;;;;;;5066017;28;20486;-82
2021/04/17 12:14:16;;;;;;;4.32;1.38;;;18.80;37.70;;;;;;5066554;28;20494;-80
2021/04/17 12:16:42;;;;;;;6.75;1.55;;;18.40;38.00;;;;;;5065913;28;20044;-82
2021/04/17 12:19:09;;;;;;;5.85;1.25;;;17.80;39.20;;;;;;5068312;28;20036;-81
2021/04/17 12:21:35;;;;;;;14.90;3.47;;;18.00;40.40;;;;;;5067460;28;20108;-80
2021/04/17 12:24:03;;;;;;;5.68;1.83;;;18.90;39.80;;;;;;5065401;28;20426;-80
2021/04/17 12:26:29;;;;;;;24.08;2.78;;;19.30;37.10;;;;;;5065557;28;20094;-80
2021/04/17 12:28:56;;;;;;;4.47;1.70;;;18.90;36.90;;;;;;5065122;28;20048;-80
2021/04/17 12:31:22;;;;;;;7.30;1.35;;;18.10;37.80;;;;;;5065812;28;20032;-78
2021/04/17 12:33:49;;;;;;;6.50;1.73;;;17.50;39.50;;;;;;5067078;28;20051;-78
2021/04/17 12:36:16;;;;;;;7.20;2.83;;;17.50;50.70;;;;;;5045675;28;20044;-78
2021/04/17 12:38:42;;;;;;;6.80;2.53;;;17.00;58.90;;;;;;5070291;28;20044;-78
2021/04/17 12:41:09;;;;;;;10.02;3.17;;;16.70;56.70;;;;;;5049563;28;20047;-77
2021/04/17 12:43:37;;;;;;;43.35;28.38;;;16.80;61.70;;;;;;5066265;28;20052;-77
2021/04/17 12:46:04;;;;;;;9.60;4.05;;;17.00;61.60;;;;;;5072180;28;20040;-77
2021/04/17 12:48:31;;;;;;;9.88;2.70;;;16.80;60.20;;;;;;5048844;28;20047;-78
2021/04/17 12:50:57;;;;;;;8.18;2.80;;;16.30;64.70;;;;;;5083327;28;20036;-77
2021/04/17 12:53:25;;;;;;;9.55;2.33;;;16.10;65.60;;;;;;5061306;28;20037;-77
2021/04/17 12:55:53;;;;;;;6.25;2.33;;;16.50;64.00;;;;;;5047648;28;20499;-77
2021/04/17 12:58:19;;;;;;;8.98;2.40;;;17.00;58.10;;;;;;5063209;28;20044;-77
2021/04/17 13:00:47;;;;;;;9.02;2.80;;;16.80;54.10;;;;;;5065829;28;20052;-77
2021/04/17 13:03:13;;;;;;;6.88;2.83;;;16.30;53.60;;;;;;5047952;28;20036;-76
2021/04/17 13:05:40;;;;;;;8.73;2.10;;;15.70;54.60;;;;;;5064208;28;20486;-77
2021/04/17 13:08:10;;;;;;;5.85;1.85;;;15.70;55.50;;;;;;5067732;28;20414;-77